sensor_id;sensor_type;location;lat;lon;timestamp;P1;durP1;ratioP1;P2;durP2;ratioP2
45065;SDS011;30830;53.704;10.004;2024-03-23T00:55:52;11.15;;;3.22;;
45065;SDS011;30830;53.704;10.004;2024-03-23T00:58:17;19.88;;;3.60;;
45065;SDS011;30830;53.704;10.004;2024-03-23T01:00:43;9.43;;;3.05;;
45065;SDS011;30830;53.704;10.004;2024-03-23T01:03:08;16.08;;;3.55;;
45065;SDS011;30830;53.704;10.004;2024-03-23T01:05:34;12.00;;;3.22;;
45065;SDS011;30830;53.704;10.004;2024-03-23T01:07:59;11.90;;;3.10;;
45065;SDS011;30830;53.704;10.004;2024-03-23T01:10:25;16.98;;;3.28;;
45065;SDS011;30830;53.704;10.004;2024-03-23T01:12:51;17.00;;;3.63;;
45065;SDS011;30830;53.704;10.004;2024-03-23T01:15:16;9.18;;;2.85;;
45065;SDS011;30830;53.704;10.004;2024-03-23T01:17:42;8.65;;;2.78;;
45065;SDS011;30830;53.704;10.004;2024-03-23T01:20:07;12.00;;;3.60;;
45065;SDS011;30830;53.704;10.004;2024-03-23T01:22:33;17.13;;;3.10;;
45065;SDS011;30830;53.704;10.004;2024-03-23T01:24:58;9.98;;;2.90;;
45065;SDS011;30830;53.704;10.004;2024-03-23T01:27:24;18.83;;;3.65;;
45065;SDS011;30830;53.704;10.004;2024-03-23T01:29:50;16.20;;;4.88;;
45065;SDS011;30830;53.704;10.004;2024-03-23T01:32:23;21.88;;;3.45;;
45065;SDS011;30830;53.704;10.004;2024-03-23T01:34:48;11.45;;;2.83;;
45065;SDS011;30830;53.704;10.004;2024-03-23T01:37:14;16.40;;;3.88;;
45065;SDS011;30830;53.704;10.004;2024-03-23T01:39:39;7.82;;;2.35;;
45065;SDS011;30830;53.704;10.004;2024-03-23T01:42:05;11.27;;;3.00;;
45065;SDS011;30830;53.704;10.004;2024-03-23T01:44:31;9.55;;;2.92;;
45065;SDS011;30830;53.704;10.004;2024-03-23T01:46:56;10.00;;;3.05;;
45065;SDS011;30830;53.704;10.004;2024-03-23T01:49:22;13.05;;;3.95;;
45065;SDS011;30830;53.704;10.004;2024-03-23T01:51:48;11.25;;;3.80;;
45065;SDS011;30830;53.704;10.004;2024-03-23T01:54:14;9.35;;;2.72;;
45065;SDS011;30830;53.704;10.004;2024-03-23T01:56:40;12.98;;;3.38;;
45065;SDS011;30830;53.704;10.004;2024-03-23T01:59:06;15.45;;;3.53;;
45065;SDS011;30830;53.704;10.004;2024-03-23T02:01:33;8.07;;;2.72;;
45065;SDS011;30830;53.704;10.004;2024-03-23T02:04:03;9.45;;;2.92;;
45065;SDS011;30830;53.704;10.004;2024-03-23T02:06:29;14.05;;;3.92;;
45065;SDS011;30830;53.704;10.004;2024-03-23T02:08:54;11.05;;;2.75;;
45065;SDS011;30830;53.704;10.004;2024-03-23T02:11:20;9.27;;;2.30;;
45065;SDS011;30830;53.704;10.004;2024-03-23T02:13:46;13.40;;;2.78;;
45065;SDS011;30830;53.704;10.004;2024-03-23T02:16:11;9.02;;;2.80;;
45065;SDS011;30830;53.704;10.004;2024-03-23T02:18:38;11.25;;;2.25;;
45065;SDS011;30830;53.704;10.004;2024-03-23T02:21:04;10.57;;;3.17;;
45065;SDS011;30830;53.704;10.004;2024-03-23T02:23:30;9.13;;;2.60;;
45065;SDS011;30830;53.704;10.004;2024-03-23T02:25:56;15.60;;;3.13;;
45065;SDS011;30830;53.704;10.004;2024-03-23T02:28:21;17.30;;;3.22;;
45065;SDS011;30830;53.704;10.004;2024-03-23T02:30:48;12.45;;;3.15;;
45065;SDS011;30830;53.704;10.004;2024-03-23T02:33:14;17.27;;;4.15;;
45065;SDS011;30830;53.704;10.004;2024-03-23T02:35:40;13.13;;;3.03;;
45065;SDS011;30830;53.704;10.004;2024-03-23T02:38:05;11.02;;;3.20;;
45065;SDS011;30830;53.704;10.004;2024-03-23T02:40:31;9.85;;;3.00;;
45065;SDS011;30830;53.704;10.004;2024-03-23T02:42:56;11.32;;;3.60;;
45065;SDS011;30830;53.704;10.004;2024-03-23T02:45:22;13.85;;;3.58;;
45065;SDS011;30830;53.704;10.004;2024-03-23T02:47:47;10.60;;;3.63;;
45065;SDS011;30830;53.704;10.004;2024-03-23T02:50:16;8.93;;;3.25;;
45065;SDS011;30830;53.704;10.004;2024-03-23T02:52:43;9.77;;;3.03;;
45065;SDS011;30830;53.704;10.004;2024-03-23T02:55:09;20.20;;;4.20;;
45065;SDS011;30830;53.704;10.004;2024-03-23T02:57:34;12.93;;;3.20;;
45065;SDS011;30830;53.704;10.004;2024-03-23T03:00:00;12.65;;;3.75;;
45065;SDS011;30830;53.704;10.004;2024-03-23T03:02:25;12.80;;;3.45;;
45065;SDS011;30830;53.704;10.004;2024-03-23T03:04:51;10.98;;;3.00;;
45065;SDS011;30830;53.704;10.004;2024-03-23T03:07:17;10.77;;;3.50;;
45065;SDS011;30830;53.704;10.004;2024-03-23T03:09:42;12.63;;;3.17;;
45065;SDS011;30830;53.704;10.004;2024-03-23T03:12:08;15.63;;;2.92;;
45065;SDS011;30830;53.704;10.004;2024-03-23T03:14:34;12.80;;;3.70;;
45065;SDS011;30830;53.704;10.004;2024-03-23T03:17:00;11.07;;;2.80;;
45065;SDS011;30830;53.704;10.004;2024-03-23T03:19:25;13.55;;;3.03;;
45065;SDS011;30830;53.704;10.004;2024-03-23T03:21:51;8.20;;;2.53;;
45065;SDS011;30830;53.704;10.004;2024-03-23T03:24:17;14.88;;;3.00;;
45065;SDS011;30830;53.704;10.004;2024-03-23T03:26:42;11.60;;;3.60;;
45065;SDS011;30830;53.704;10.004;2024-03-23T03:29:08;9.45;;;3.15;;
45065;SDS011;30830;53.704;10.004;2024-03-23T03:31:33;8.18;;;2.30;;
45065;SDS011;30830;53.704;10.004;2024-03-23T03:33:59;6.57;;;2.00;;
45065;SDS011;30830;53.704;10.004;2024-03-23T03:36:25;6.63;;;2.78;;
45065;SDS011;30830;53.704;10.004;2024-03-23T03:38:50;11.60;;;3.47;;
45065;SDS011;30830;53.704;10.004;2024-03-23T03:41:16;11.55;;;2.95;;
45065;SDS011;30830;53.704;10.004;2024-03-23T03:43:42;6.78;;;2.75;;
45065;SDS011;30830;53.704;10.004;2024-03-23T03:46:08;14.27;;;3.40;;
45065;SDS011;30830;53.704;10.004;2024-03-23T03:48:34;11.30;;;2.65;;
45065;SDS011;30830;53.704;10.004;2024-03-23T03:51:00;13.90;;;3.38;;
45065;SDS011;30830;53.704;10.004;2024-03-23T03:53:25;11.13;;;3.13;;
45065;SDS011;30830;53.704;10.004;2024-03-23T03:55:51;10.07;;;2.50;;
45065;SDS011;30830;53.704;10.004;2024-03-23T03:58:17;10.00;;;2.95;;
45065;SDS011;30830;53.704;10.004;2024-03-23T04:00:42;10.40;;;2.83;;
45065;SDS011;30830;53.704;10.004;2024-03-23T04:03:08;12.85;;;2.85;;
45065;SDS011;30830;53.704;10.004;2024-03-23T04:05:34;13.25;;;2.97;;
45065;SDS011;30830;53.704;10.004;2024-03-23T04:07:59;7.65;;;3.10;;
45065;SDS011;30830;53.704;10.004;2024-03-23T04:10:25;7.60;;;2.67;;
45065;SDS011;30830;53.704;10.004;2024-03-23T04:12:51;10.77;;;2.70;;
45065;SDS011;30830;53.704;10.004;2024-03-23T04:15:17;7.78;;;2.50;;
45065;SDS011;30830;53.704;10.004;2024-03-23T04:17:42;14.65;;;3.17;;
45065;SDS011;30830;53.704;10.004;2024-03-23T04:20:08;11.70;;;3.60;;
45065;SDS011;30830;53.704;10.004;2024-03-23T04:22:38;16.80;;;3.30;;
45065;SDS011;30830;53.704;10.004;2024-03-23T04:25:05;18.95;;;2.97;;
45065;SDS011;30830;53.704;10.004;2024-03-23T04:27:35;5.20;;;2.30;;
45065;SDS011;30830;53.704;10.004;2024-03-23T04:30:02;10.40;;;3.22;;
45065;SDS011;30830;53.704;10.004;2024-03-23T04:32:29;7.43;;;3.05;;
45065;SDS011;30830;53.704;10.004;2024-03-23T04:34:56;11.30;;;2.45;;
45065;SDS011;30830;53.704;10.004;2024-03-23T04:37:22;9.82;;;2.80;;
45065;SDS011;30830;53.704;10.004;2024-03-23T04:39:47;10.55;;;3.05;;
45065;SDS011;30830;53.704;10.004;2024-03-23T04:42:14;9.57;;;2.80;;
45065;SDS011;30830;53.704;10.004;2024-03-23T04:44:40;8.10;;;2.80;;
45065;SDS011;30830;53.704;10.004;2024-03-23T04:47:06;12.68;;;2.53;;
45065;SDS011;30830;53.704;10.004;2024-03-23T04:49:32;12.45;;;3.25;;
45065;SDS011;30830;53.704;10.004;2024-03-23T04:51:57;7.50;;;2.78;;
45065;SDS011;30830;53.704;10.004;2024-03-23T04:54:23;8.95;;;3.08;;
45065;SDS011;30830;53.704;10.004;2024-03-23T04:56:49;7.50;;;2.55;;
45065;SDS011;30830;53.704;10.004;2024-03-23T04:59:14;11.02;;;3.13;;
45065;SDS011;30830;53.704;10.004;2024-03-23T05:01:40;8.98;;;3.42;;
45065;SDS011;30830;53.704;10.004;2024-03-23T05:04:07;16.67;;;3.20;;
45065;SDS011;30830;53.704;10.004;2024-03-23T05:06:33;11.93;;;3.17;;
45065;SDS011;30830;53.704;10.004;2024-03-23T05:08:59;10.07;;;3.17;;
45065;SDS011;30830;53.704;10.004;2024-03-23T05:11:28;8.52;;;2.88;;
45065;SDS011;30830;53.704;10.004;2024-03-23T05:13:53;10.90;;;3.15;;
45065;SDS011;30830;53.704;10.004;2024-03-23T05:16:19;11.25;;;3.22;;
45065;SDS011;30830;53.704;10.004;2024-03-23T05:18:44;8.20;;;2.40;;
45065;SDS011;30830;53.704;10.004;2024-03-23T05:21:10;10.77;;;3.33;;
45065;SDS011;30830;53.704;10.004;2024-03-23T05:23:36;8.18;;;2.50;;
45065;SDS011;30830;53.704;10.004;2024-03-23T05:26:03;9.05;;;2.40;;
45065;SDS011;30830;53.704;10.004;2024-03-23T05:28:29;18.90;;;3.53;;
45065;SDS011;30830;53.704;10.004;2024-03-23T05:30:55;6.93;;;3.00;;
45065;SDS011;30830;53.704;10.004;2024-03-23T05:33:22;8.00;;;2.45;;
45065;SDS011;30830;53.704;10.004;2024-03-23T05:35:55;8.32;;;3.08;;
45065;SDS011;30830;53.704;10.004;2024-03-23T05:40:56;12.07;;;2.97;;
45065;SDS011;30830;53.704;10.004;2024-03-23T05:43:25;11.02;;;3.88;;
45065;SDS011;30830;53.704;10.004;2024-03-23T05:48:20;9.85;;;2.88;;
45065;SDS011;30830;53.704;10.004;2024-03-23T05:50:46;12.25;;;3.35;;
45065;SDS011;30830;53.704;10.004;2024-03-23T05:53:14;8.70;;;3.05;;
45065;SDS011;30830;53.704;10.004;2024-03-23T05:55:45;17.20;;;3.53;;
45065;SDS011;30830;53.704;10.004;2024-03-23T05:58:12;11.77;;;3.00;;
45065;SDS011;30830;53.704;10.004;2024-03-23T06:00:39;13.25;;;3.78;;
45065;SDS011;30830;53.704;10.004;2024-03-23T06:03:05;9.38;;;2.63;;
45065;SDS011;30830;53.704;10.004;2024-03-23T06:05:30;19.42;;;3.45;;
45065;SDS011;30830;53.704;10.004;2024-03-23T06:07:56;10.02;;;2.88;;
45065;SDS011;30830;53.704;10.004;2024-03-23T06:10:22;9.68;;;2.28;;
45065;SDS011;30830;53.704;10.004;2024-03-23T06:12:48;13.13;;;3.55;;
45065;SDS011;30830;53.704;10.004;2024-03-23T06:15:14;10.70;;;3.13;;
45065;SDS011;30830;53.704;10.004;2024-03-23T06:17:40;19.67;;;3.78;;
45065;SDS011;30830;53.704;10.004;2024-03-23T06:20:05;16.40;;;3.38;;
45065;SDS011;30830;53.704;10.004;2024-03-23T06:22:31;11.63;;;3.25;;
45065;SDS011;30830;53.704;10.004;2024-03-23T06:24:58;10.25;;;2.85;;
45065;SDS011;30830;53.704;10.004;2024-03-23T06:27:24;14.00;;;4.10;;
45065;SDS011;30830;53.704;10.004;2024-03-23T06:29:49;15.00;;;3.80;;
45065;SDS011;30830;53.704;10.004;2024-03-23T06:32:15;13.60;;;3.00;;
45065;SDS011;30830;53.704;10.004;2024-03-23T06:34:43;11.18;;;2.65;;
45065;SDS011;30830;53.704;10.004;2024-03-23T06:37:09;11.07;;;3.13;;
45065;SDS011;30830;53.704;10.004;2024-03-23T06:39:38;12.93;;;2.80;;
45065;SDS011;30830;53.704;10.004;2024-03-23T06:42:04;17.23;;;3.47;;
45065;SDS011;30830;53.704;10.004;2024-03-23T06:44:30;14.73;;;3.97;;
45065;SDS011;30830;53.704;10.004;2024-03-23T06:46:56;14.00;;;3.70;;
45065;SDS011;30830;53.704;10.004;2024-03-23T06:49:22;12.88;;;3.55;;
45065;SDS011;30830;53.704;10.004;2024-03-23T06:51:48;18.23;;;3.72;;
45065;SDS011;30830;53.704;10.004;2024-03-23T06:54:13;14.90;;;3.45;;
45065;SDS011;30830;53.704;10.004;2024-03-23T06:56:39;13.13;;;2.65;;
45065;SDS011;30830;53.704;10.004;2024-03-23T06:59:05;19.85;;;4.70;;
45065;SDS011;30830;53.704;10.004;2024-03-23T07:01:31;12.32;;;3.20;;
45065;SDS011;30830;53.704;10.004;2024-03-23T07:03:57;15.20;;;3.55;;
45065;SDS011;30830;53.704;10.004;2024-03-23T07:06:22;13.38;;;2.67;;
45065;SDS011;30830;53.704;10.004;2024-03-23T07:08:48;16.15;;;2.83;;
45065;SDS011;30830;53.704;10.004;2024-03-23T07:11:20;17.67;;;4.35;;
45065;SDS011;30830;53.704;10.004;2024-03-23T07:13:46;13.82;;;3.65;;
45065;SDS011;30830;53.704;10.004;2024-03-23T07:16:14;15.68;;;4.05;;
45065;SDS011;30830;53.704;10.004;2024-03-23T07:18:41;9.68;;;3.22;;
45065;SDS011;30830;53.704;10.004;2024-03-23T07:21:06;12.25;;;3.17;;
45065;SDS011;30830;53.704;10.004;2024-03-23T07:23:32;13.20;;;3.60;;
45065;SDS011;30830;53.704;10.004;2024-03-23T07:26:01;16.00;;;3.63;;
45065;SDS011;30830;53.704;10.004;2024-03-23T07:28:29;16.80;;;3.63;;
45065;SDS011;30830;53.704;10.004;2024-03-23T07:33:34;17.45;;;3.72;;
45065;SDS011;30830;53.704;10.004;2024-03-23T07:36:01;12.55;;;3.22;;
45065;SDS011;30830;53.704;10.004;2024-03-23T07:38:30;13.20;;;3.33;;
45065;SDS011;30830;53.704;10.004;2024-03-23T07:41:06;16.15;;;3.42;;
45065;SDS011;30830;53.704;10.004;2024-03-23T07:43:35;19.20;;;3.67;;
45065;SDS011;30830;53.704;10.004;2024-03-23T07:46:01;11.43;;;3.38;;
45065;SDS011;30830;53.704;10.004;2024-03-23T07:48:29;14.82;;;3.67;;
45065;SDS011;30830;53.704;10.004;2024-03-23T07:53:28;8.80;;;3.03;;
45065;SDS011;30830;53.704;10.004;2024-03-23T07:55:58;11.45;;;2.28;;
45065;SDS011;30830;53.704;10.004;2024-03-23T07:58:26;11.77;;;2.90;;
45065;SDS011;30830;53.704;10.004;2024-03-23T08:00:52;16.83;;;3.35;;
45065;SDS011;30830;53.704;10.004;2024-03-23T08:03:18;13.75;;;3.47;;
45065;SDS011;30830;53.704;10.004;2024-03-23T08:05:44;11.95;;;3.30;;
45065;SDS011;30830;53.704;10.004;2024-03-23T08:08:09;12.43;;;3.65;;
45065;SDS011;30830;53.704;10.004;2024-03-23T08:10:36;13.43;;;4.47;;
45065;SDS011;30830;53.704;10.004;2024-03-23T08:13:02;19.65;;;4.13;;
45065;SDS011;30830;53.704;10.004;2024-03-23T08:15:29;12.88;;;3.50;;
45065;SDS011;30830;53.704;10.004;2024-03-23T08:17:57;25.02;;;4.15;;
45065;SDS011;30830;53.704;10.004;2024-03-23T08:20:23;13.75;;;3.55;;
45065;SDS011;30830;53.704;10.004;2024-03-23T08:22:49;5.90;;;2.83;;
45065;SDS011;30830;53.704;10.004;2024-03-23T08:25:14;18.95;;;4.05;;
45065;SDS011;30830;53.704;10.004;2024-03-23T08:27:40;14.38;;;4.15;;
45065;SDS011;30830;53.704;10.004;2024-03-23T08:30:06;11.73;;;3.75;;
45065;SDS011;30830;53.704;10.004;2024-03-23T08:32:32;9.07;;;3.00;;
45065;SDS011;30830;53.704;10.004;2024-03-23T08:34:57;11.20;;;4.03;;
45065;SDS011;30830;53.704;10.004;2024-03-23T08:37:23;10.73;;;3.05;;
45065;SDS011;30830;53.704;10.004;2024-03-23T08:39:50;9.93;;;3.35;;
45065;SDS011;30830;53.704;10.004;2024-03-23T08:42:16;12.65;;;3.42;;
45065;SDS011;30830;53.704;10.004;2024-03-23T08:44:41;7.88;;;3.00;;
45065;SDS011;30830;53.704;10.004;2024-03-23T08:47:11;14.32;;;3.28;;
45065;SDS011;30830;53.704;10.004;2024-03-23T08:49:37;12.25;;;3.67;;
45065;SDS011;30830;53.704;10.004;2024-03-23T08:52:02;9.15;;;2.83;;
45065;SDS011;30830;53.704;10.004;2024-03-23T08:54:28;6.93;;;3.00;;
45065;SDS011;30830;53.704;10.004;2024-03-23T08:56:56;11.73;;;2.45;;
45065;SDS011;30830;53.704;10.004;2024-03-23T08:59:21;8.88;;;2.10;;
45065;SDS011;30830;53.704;10.004;2024-03-23T09:01:48;11.32;;;3.17;;
45065;SDS011;30830;53.704;10.004;2024-03-23T09:04:14;7.53;;;2.65;;
45065;SDS011;30830;53.704;10.004;2024-03-23T09:06:41;6.53;;;2.42;;
45065;SDS011;30830;53.704;10.004;2024-03-23T09:09:07;15.00;;;3.33;;
45065;SDS011;30830;53.704;10.004;2024-03-23T09:11:33;19.25;;;4.15;;
45065;SDS011;30830;53.704;10.004;2024-03-23T09:13:59;9.77;;;2.33;;
45065;SDS011;30830;53.704;10.004;2024-03-23T09:16:24;7.25;;;2.03;;
45065;SDS011;30830;53.704;10.004;2024-03-23T09:18:50;9.73;;;2.90;;
45065;SDS011;30830;53.704;10.004;2024-03-23T09:21:16;7.65;;;2.55;;
45065;SDS011;30830;53.704;10.004;2024-03-23T09:23:45;4.50;;;2.42;;
45065;SDS011;30830;53.704;10.004;2024-03-23T09:26:11;7.45;;;2.13;;
45065;SDS011;30830;53.704;10.004;2024-03-23T09:28:37;8.75;;;2.97;;
45065;SDS011;30830;53.704;10.004;2024-03-23T09:31:03;6.50;;;2.28;;
45065;SDS011;30830;53.704;10.004;2024-03-23T09:33:29;6.05;;;2.42;;
45065;SDS011;30830;53.704;10.004;2024-03-23T09:35:55;14.02;;;2.58;;
45065;SDS011;30830;53.704;10.004;2024-03-23T09:38:21;9.02;;;2.85;;
45065;SDS011;30830;53.704;10.004;2024-03-23T09:40:50;10.02;;;3.10;;
45065;SDS011;30830;53.704;10.004;2024-03-23T09:43:18;9.20;;;2.13;;
45065;SDS011;30830;53.704;10.004;2024-03-23T09:45:44;7.38;;;2.13;;
45065;SDS011;30830;53.704;10.004;2024-03-23T09:48:11;6.15;;;1.80;;
45065;SDS011;30830;53.704;10.004;2024-03-23T09:50:38;7.75;;;2.45;;
45065;SDS011;30830;53.704;10.004;2024-03-23T09:53:05;9.98;;;2.60;;
45065;SDS011;30830;53.704;10.004;2024-03-23T09:55:32;5.55;;;1.77;;
45065;SDS011;30830;53.704;10.004;2024-03-23T09:57:57;7.32;;;2.75;;
45065;SDS011;30830;53.704;10.004;2024-03-23T10:00:23;11.57;;;2.03;;
45065;SDS011;30830;53.704;10.004;2024-03-23T10:02:48;10.98;;;2.38;;
45065;SDS011;30830;53.704;10.004;2024-03-23T10:05:20;10.93;;;2.20;;
45065;SDS011;30830;53.704;10.004;2024-03-23T10:07:48;7.65;;;1.88;;
45065;SDS011;30830;53.704;10.004;2024-03-23T10:10:15;5.88;;;2.33;;
45065;SDS011;30830;53.704;10.004;2024-03-23T10:12:48;6.57;;;1.90;;
45065;SDS011;30830;53.704;10.004;2024-03-23T10:15:20;4.97;;;1.90;;
45065;SDS011;30830;53.704;10.004;2024-03-23T10:17:47;9.25;;;2.40;;
45065;SDS011;30830;53.704;10.004;2024-03-23T10:20:13;6.13;;;2.20;;
45065;SDS011;30830;53.704;10.004;2024-03-23T10:22:48;5.53;;;2.38;;
45065;SDS011;30830;53.704;10.004;2024-03-23T10:25:17;7.97;;;2.10;;
45065;SDS011;30830;53.704;10.004;2024-03-23T10:27:43;8.77;;;2.05;;
45065;SDS011;30830;53.704;10.004;2024-03-23T10:30:12;8.98;;;2.08;;
45065;SDS011;30830;53.704;10.004;2024-03-23T10:32:41;13.23;;;2.85;;
45065;SDS011;30830;53.704;10.004;2024-03-23T10:35:17;8.98;;;2.00;;
45065;SDS011;30830;53.704;10.004;2024-03-23T10:37:44;4.95;;;1.52;;
45065;SDS011;30830;53.704;10.004;2024-03-23T10:40:11;4.70;;;1.85;;
45065;SDS011;30830;53.704;10.004;2024-03-23T10:42:38;5.95;;;2.20;;
45065;SDS011;30830;53.704;10.004;2024-03-23T10:45:04;6.05;;;1.88;;
45065;SDS011;30830;53.704;10.004;2024-03-23T10:47:31;6.63;;;2.00;;
45065;SDS011;30830;53.704;10.004;2024-03-23T10:49:57;5.43;;;1.40;;
45065;SDS011;30830;53.704;10.004;2024-03-23T10:52:23;5.28;;;2.00;;
45065;SDS011;30830;53.704;10.004;2024-03-23T10:54:50;3.58;;;1.17;;
45065;SDS011;30830;53.704;10.004;2024-03-23T10:57:21;3.55;;;1.00;;
45065;SDS011;30830;53.704;10.004;2024-03-23T10:59:51;4.07;;;1.05;;
45065;SDS011;30830;53.704;10.004;2024-03-23T11:02:20;5.22;;;1.40;;
45065;SDS011;30830;53.704;10.004;2024-03-23T11:04:47;6.15;;;1.52;;
45065;SDS011;30830;53.704;10.004;2024-03-23T11:10:24;5.53;;;1.45;;
45065;SDS011;30830;53.704;10.004;2024-03-23T11:12:50;4.57;;;1.42;;
45065;SDS011;30830;53.704;10.004;2024-03-23T11:15:21;4.25;;;1.48;;
45065;SDS011;30830;53.704;10.004;2024-03-23T11:18:01;4.53;;;1.75;;
45065;SDS011;30830;53.704;10.004;2024-03-23T11:20:32;4.07;;;1.45;;
45065;SDS011;30830;53.704;10.004;2024-03-23T11:23:01;4.22;;;1.05;;
45065;SDS011;30830;53.704;10.004;2024-03-23T11:25:36;6.90;;;1.60;;
45065;SDS011;30830;53.704;10.004;2024-03-23T11:28:11;3.63;;;1.05;;
45065;SDS011;30830;53.704;10.004;2024-03-23T11:30:37;6.80;;;0.90;;
45065;SDS011;30830;53.704;10.004;2024-03-23T11:33:05;5.93;;;1.42;;
45065;SDS011;30830;53.704;10.004;2024-03-23T11:35:32;3.72;;;0.90;;
45065;SDS011;30830;53.704;10.004;2024-03-23T11:38:16;1.88;;;0.28;;
45065;SDS011;30830;53.704;10.004;2024-03-23T11:40:45;1.42;;;0.60;;
45065;SDS011;30830;53.704;10.004;2024-03-23T11:43:16;3.47;;;0.63;;
45065;SDS011;30830;53.704;10.004;2024-03-23T11:45:43;4.57;;;0.95;;
45065;SDS011;30830;53.704;10.004;2024-03-23T11:48:11;6.72;;;1.38;;
45065;SDS011;30830;53.704;10.004;2024-03-23T11:50:40;3.08;;;1.10;;
45065;SDS011;30830;53.704;10.004;2024-03-23T11:55:49;4.43;;;1.20;;
45065;SDS011;30830;53.704;10.004;2024-03-23T11:58:20;2.13;;;1.38;;
45065;SDS011;30830;53.704;10.004;2024-03-23T12:00:55;3.10;;;1.17;;
45065;SDS011;30830;53.704;10.004;2024-03-23T12:03:43;4.07;;;0.82;;
45065;SDS011;30830;53.704;10.004;2024-03-23T12:06:09;1.67;;;0.50;;
45065;SDS011;30830;53.704;10.004;2024-03-23T12:08:35;2.38;;;0.55;;
45065;SDS011;30830;53.704;10.004;2024-03-23T12:11:11;1.83;;;0.57;;
45065;SDS011;30830;53.704;10.004;2024-03-23T12:13:38;4.15;;;0.50;;
45065;SDS011;30830;53.704;10.004;2024-03-23T12:16:13;0.88;;;0.30;;
45065;SDS011;30830;53.704;10.004;2024-03-23T12:18:49;2.20;;;0.47;;
45065;SDS011;30830;53.704;10.004;2024-03-23T12:21:19;0.32;;;0.30;;
45065;SDS011;30830;53.704;10.004;2024-03-23T12:23:47;1.38;;;0.60;;
45065;SDS011;30830;53.704;10.004;2024-03-23T12:26:15;1.48;;;0.43;;
45065;SDS011;30830;53.704;10.004;2024-03-23T12:28:41;2.28;;;0.60;;
45065;SDS011;30830;53.704;10.004;2024-03-23T12:31:07;1.58;;;0.82;;
45065;SDS011;30830;53.704;10.004;2024-03-23T12:33:32;0.93;;;0.50;;
45065;SDS011;30830;53.704;10.004;2024-03-23T12:35:58;3.20;;;1.08;;
45065;SDS011;30830;53.704;10.004;2024-03-23T12:38:26;2.42;;;0.80;;
45065;SDS011;30830;53.704;10.004;2024-03-23T12:40:52;0.60;;;0.50;;
45065;SDS011;30830;53.704;10.004;2024-03-23T12:43:18;2.22;;;0.90;;
45065;SDS011;30830;53.704;10.004;2024-03-23T12:45:49;4.60;;;0.85;;
45065;SDS011;30830;53.704;10.004;2024-03-23T12:48:16;1.30;;;0.47;;
45065;SDS011;30830;53.704;10.004;2024-03-23T12:50:41;0.90;;;0.50;;
45065;SDS011;30830;53.704;10.004;2024-03-23T12:53:13;2.10;;;0.40;;
45065;SDS011;30830;53.704;10.004;2024-03-23T12:55:38;1.33;;;0.80;;
45065;SDS011;30830;53.704;10.004;2024-03-23T12:58:04;1.23;;;0.30;;
45065;SDS011;30830;53.704;10.004;2024-03-23T13:00:32;0.80;;;0.40;;
45065;SDS011;30830;53.704;10.004;2024-03-23T13:02:57;0.47;;;0.32;;
45065;SDS011;30830;53.704;10.004;2024-03-23T13:05:23;1.30;;;0.25;;
45065;SDS011;30830;53.704;10.004;2024-03-23T13:07:48;0.60;;;0.50;;
45065;SDS011;30830;53.704;10.004;2024-03-23T13:10:14;0.75;;;0.20;;
45065;SDS011;30830;53.704;10.004;2024-03-23T13:12:41;0.82;;;0.10;;
45065;SDS011;30830;53.704;10.004;2024-03-23T13:15:07;0.40;;;0.20;;
45065;SDS011;30830;53.704;10.004;2024-03-23T13:17:33;1.40;;;0.40;;
45065;SDS011;30830;53.704;10.004;2024-03-23T13:19:59;3.42;;;0.63;;
45065;SDS011;30830;53.704;10.004;2024-03-23T13:22:25;1.83;;;0.95;;
45065;SDS011;30830;53.704;10.004;2024-03-23T13:24:50;3.65;;;0.47;;
45065;SDS011;30830;53.704;10.004;2024-03-23T13:27:16;1.40;;;0.80;;
45065;SDS011;30830;53.704;10.004;2024-03-23T13:29:41;2.22;;;1.08;;
45065;SDS011;30830;53.704;10.004;2024-03-23T13:32:07;3.10;;;0.63;;
45065;SDS011;30830;53.704;10.004;2024-03-23T13:34:33;2.10;;;0.80;;
45065;SDS011;30830;53.704;10.004;2024-03-23T13:36:59;2.85;;;1.08;;
45065;SDS011;30830;53.704;10.004;2024-03-23T13:39:25;1.17;;;0.65;;
45065;SDS011;30830;53.704;10.004;2024-03-23T13:41:52;1.35;;;0.70;;
45065;SDS011;30830;53.704;10.004;2024-03-23T13:44:21;2.47;;;0.68;;
45065;SDS011;30830;53.704;10.004;2024-03-23T13:46:46;2.08;;;0.40;;
45065;SDS011;30830;53.704;10.004;2024-03-23T13:49:45;0.60;;;0.40;;
45065;SDS011;30830;53.704;10.004;2024-03-23T13:52:05;2.47;;;0.63;;
45065;SDS011;30830;53.704;10.004;2024-03-23T13:54:32;4.47;;;0.40;;
45065;SDS011;30830;53.704;10.004;2024-03-23T13:56:57;0.82;;;0.25;;
45065;SDS011;30830;53.704;10.004;2024-03-23T13:59:26;1.60;;;0.40;;
45065;SDS011;30830;53.704;10.004;2024-03-23T14:01:53;2.88;;;0.60;;
45065;SDS011;30830;53.704;10.004;2024-03-23T14:04:18;0.85;;;0.40;;
45065;SDS011;30830;53.704;10.004;2024-03-23T14:06:47;1.48;;;0.70;;
45065;SDS011;30830;53.704;10.004;2024-03-23T14:09:13;0.50;;;0.25;;
45065;SDS011;30830;53.704;10.004;2024-03-23T14:11:40;2.00;;;0.95;;
45065;SDS011;30830;53.704;10.004;2024-03-23T14:14:08;3.90;;;0.85;;
45065;SDS011;30830;53.704;10.004;2024-03-23T14:16:34;5.50;;;0.98;;
45065;SDS011;30830;53.704;10.004;2024-03-23T14:18:59;3.13;;;0.80;;
45065;SDS011;30830;53.704;10.004;2024-03-23T14:21:25;2.38;;;0.80;;
45065;SDS011;30830;53.704;10.004;2024-03-23T14:23:51;3.33;;;1.30;;
45065;SDS011;30830;53.704;10.004;2024-03-23T14:26:16;2.63;;;1.00;;
45065;SDS011;30830;53.704;10.004;2024-03-23T14:28:42;3.67;;;1.38;;
45065;SDS011;30830;53.704;10.004;2024-03-23T14:31:08;5.68;;;1.38;;
45065;SDS011;30830;53.704;10.004;2024-03-23T14:33:35;5.53;;;1.60;;
45065;SDS011;30830;53.704;10.004;2024-03-23T14:36:10;1.40;;;1.13;;
45065;SDS011;30830;53.704;10.004;2024-03-23T14:38:36;5.90;;;1.90;;
45065;SDS011;30830;53.704;10.004;2024-03-23T14:41:08;5.50;;;1.40;;
45065;SDS011;30830;53.704;10.004;2024-03-23T14:43:33;3.38;;;1.25;;
45065;SDS011;30830;53.704;10.004;2024-03-23T14:48:38;4.28;;;1.55;;
45065;SDS011;30830;53.704;10.004;2024-03-23T14:51:05;8.80;;;1.88;;
45065;SDS011;30830;53.704;10.004;2024-03-23T14:53:34;5.47;;;1.17;;
45065;SDS011;30830;53.704;10.004;2024-03-23T14:56:01;7.45;;;1.38;;
45065;SDS011;30830;53.704;10.004;2024-03-23T14:58:28;3.45;;;1.17;;
45065;SDS011;30830;53.704;10.004;2024-03-23T15:01:01;2.63;;;1.33;;
45065;SDS011;30830;53.704;10.004;2024-03-23T15:03:28;3.00;;;1.00;;
45065;SDS011;30830;53.704;10.004;2024-03-23T15:05:54;4.03;;;1.30;;
45065;SDS011;30830;53.704;10.004;2024-03-23T15:08:23;4.90;;;1.38;;
45065;SDS011;30830;53.704;10.004;2024-03-23T15:10:53;5.88;;;1.08;;
45065;SDS011;30830;53.704;10.004;2024-03-23T15:13:18;3.72;;;1.40;;
45065;SDS011;30830;53.704;10.004;2024-03-23T15:15:44;4.68;;;1.23;;
45065;SDS011;30830;53.704;10.004;2024-03-23T15:18:13;3.00;;;1.05;;
45065;SDS011;30830;53.704;10.004;2024-03-23T15:20:57;2.83;;;0.88;;
45065;SDS011;30830;53.704;10.004;2024-03-23T15:23:31;2.28;;;1.00;;
45065;SDS011;30830;53.704;10.004;2024-03-23T15:25:57;2.53;;;0.75;;
45065;SDS011;30830;53.704;10.004;2024-03-23T15:28:27;4.63;;;1.10;;
45065;SDS011;30830;53.704;10.004;2024-03-23T15:31:13;3.80;;;1.08;;
45065;SDS011;30830;53.704;10.004;2024-03-23T15:33:39;0.63;;;0.38;;
45065;SDS011;30830;53.704;10.004;2024-03-23T15:36:05;2.05;;;0.80;;
45065;SDS011;30830;53.704;10.004;2024-03-23T15:38:31;0.88;;;0.63;;
45065;SDS011;30830;53.704;10.004;2024-03-23T15:40:57;2.35;;;0.90;;